sensor_id;sensor_type;location;lat;lon;timestamp;P1;durP1;ratioP1;P2;durP2;ratioP2
27543;SDS011;17996;51.056;3.656;2023-06-22T00:00:54;7.40;;;3.88;;
27543;SDS011;17996;51.056;3.656;2023-06-22T00:03:21;6.03;;;3.40;;
27543;SDS011;17996;51.056;3.656;2023-06-22T00:05:48;4.18;;;3.15;;
27543;SDS011;17996;51.056;3.656;2023-06-22T00:08:14;6.72;;;3.15;;
27543;SDS011;17996;51.056;3.656;2023-06-22T00:10:41;4.22;;;3.72;;
27543;SDS011;17996;51.056;3.656;2023-06-22T00:13:08;8.98;;;3.65;;
27543;SDS011;17996;51.056;3.656;2023-06-22T00:15:38;4.43;;;3.28;;
27543;SDS011;17996;51.056;3.656;2023-06-22T00:18:09;6.38;;;3.40;;
27543;SDS011;17996;51.056;3.656;2023-06-22T00:20:35;6.78;;;3.20;;
27543;SDS011;17996;51.056;3.656;2023-06-22T00:23:02;6.38;;;3.15;;
27543;SDS011;17996;51.056;3.656;2023-06-22T00:25:35;5.40;;;3.40;;
27543;SDS011;17996;51.056;3.656;2023-06-22T00:28:02;5.28;;;3.75;;
27543;SDS011;17996;51.056;3.656;2023-06-22T00:30:29;8.65;;;3.97;;
27543;SDS011;17996;51.056;3.656;2023-06-22T00:32:56;9.48;;;3.83;;
27543;SDS011;17996;51.056;3.656;2023-06-22T00:35:21;8.00;;;3.45;;
27543;SDS011;17996;51.056;3.656;2023-06-22T00:37:47;6.72;;;3.70;;
27543;SDS011;17996;51.056;3.656;2023-06-22T00:40:13;5.18;;;3.90;;
27543;SDS011;17996;51.056;3.656;2023-06-22T00:42:39;5.90;;;4.38;;
27543;SDS011;17996;51.056;3.656;2023-06-22T00:45:07;4.75;;;3.50;;
27543;SDS011;17996;51.056;3.656;2023-06-22T00:47:36;8.20;;;4.60;;
27543;SDS011;17996;51.056;3.656;2023-06-22T00:50:03;9.15;;;4.38;;
27543;SDS011;17996;51.056;3.656;2023-06-22T00:55:00;10.45;;;4.10;;
27543;SDS011;17996;51.056;3.656;2023-06-22T00:57:27;6.00;;;3.50;;
27543;SDS011;17996;51.056;3.656;2023-06-22T00:59:54;6.35;;;3.90;;
27543;SDS011;17996;51.056;3.656;2023-06-22T01:02:20;9.15;;;3.80;;
27543;SDS011;17996;51.056;3.656;2023-06-22T01:04:46;4.65;;;3.58;;
27543;SDS011;17996;51.056;3.656;2023-06-22T01:07:21;6.15;;;3.83;;
27543;SDS011;17996;51.056;3.656;2023-06-22T01:10:07;8.13;;;4.18;;
27543;SDS011;17996;51.056;3.656;2023-06-22T01:12:45;7.60;;;4.60;;
27543;SDS011;17996;51.056;3.656;2023-06-22T01:15:19;9.48;;;4.88;;
27543;SDS011;17996;51.056;3.656;2023-06-22T01:17:50;8.93;;;4.97;;
27543;SDS011;17996;51.056;3.656;2023-06-22T01:20:18;7.97;;;4.75;;
27543;SDS011;17996;51.056;3.656;2023-06-22T01:25:57;9.15;;;4.90;;
27543;SDS011;17996;51.056;3.656;2023-06-22T01:31:08;7.85;;;5.60;;
27543;SDS011;17996;51.056;3.656;2023-06-22T01:36:04;9.55;;;4.47;;
27543;SDS011;17996;51.056;3.656;2023-06-22T01:38:31;9.63;;;4.82;;
27543;SDS011;17996;51.056;3.656;2023-06-22T01:40:59;6.55;;;4.90;;
27543;SDS011;17996;51.056;3.656;2023-06-22T01:43:26;6.93;;;5.20;;
27543;SDS011;17996;51.056;3.656;2023-06-22T01:45:54;7.78;;;5.05;;
27543;SDS011;17996;51.056;3.656;2023-06-22T01:48:24;9.38;;;5.97;;
27543;SDS011;17996;51.056;3.656;2023-06-22T01:50:51;7.70;;;5.70;;
27543;SDS011;17996;51.056;3.656;2023-06-22T01:53:18;16.98;;;6.18;;
27543;SDS011;17996;51.056;3.656;2023-06-22T01:55:45;8.95;;;6.00;;
27543;SDS011;17996;51.056;3.656;2023-06-22T01:58:11;8.68;;;5.78;;
27543;SDS011;17996;51.056;3.656;2023-06-22T02:00:37;12.00;;;6.05;;
27543;SDS011;17996;51.056;3.656;2023-06-22T02:03:08;12.35;;;7.05;;
27543;SDS011;17996;51.056;3.656;2023-06-22T02:06:01;10.40;;;6.10;;
27543;SDS011;17996;51.056;3.656;2023-06-22T02:08:29;10.55;;;6.00;;
27543;SDS011;17996;51.056;3.656;2023-06-22T02:11:00;9.20;;;5.45;;
27543;SDS011;17996;51.056;3.656;2023-06-22T02:13:27;11.30;;;6.55;;
27543;SDS011;17996;51.056;3.656;2023-06-22T02:15:53;9.80;;;6.53;;
27543;SDS011;17996;51.056;3.656;2023-06-22T02:18:19;11.68;;;7.15;;
27543;SDS011;17996;51.056;3.656;2023-06-22T02:20:45;13.15;;;6.35;;
27543;SDS011;17996;51.056;3.656;2023-06-22T02:23:11;8.85;;;7.00;;
27543;SDS011;17996;51.056;3.656;2023-06-22T02:25:37;10.07;;;6.53;;
27543;SDS011;17996;51.056;3.656;2023-06-22T02:28:03;8.45;;;6.65;;
27543;SDS011;17996;51.056;3.656;2023-06-22T02:30:29;11.40;;;6.65;;
27543;SDS011;17996;51.056;3.656;2023-06-22T02:32:54;10.60;;;6.70;;
27543;SDS011;17996;51.056;3.656;2023-06-22T02:35:24;17.00;;;8.02;;
27543;SDS011;17996;51.056;3.656;2023-06-22T02:37:59;11.98;;;8.55;;
27543;SDS011;17996;51.056;3.656;2023-06-22T02:40:26;9.02;;;6.78;;
27543;SDS011;17996;51.056;3.656;2023-06-22T02:42:54;9.02;;;7.18;;
27543;SDS011;17996;51.056;3.656;2023-06-22T02:45:20;9.63;;;7.72;;
27543;SDS011;17996;51.056;3.656;2023-06-22T02:47:45;11.10;;;8.50;;
27543;SDS011;17996;51.056;3.656;2023-06-22T02:50:12;11.52;;;8.23;;
27543;SDS011;17996;51.056;3.656;2023-06-22T02:52:38;14.73;;;8.75;;
27543;SDS011;17996;51.056;3.656;2023-06-22T02:55:04;14.25;;;10.05;;
27543;SDS011;17996;51.056;3.656;2023-06-22T02:57:32;13.35;;;7.88;;
27543;SDS011;17996;51.056;3.656;2023-06-22T02:59:58;12.45;;;9.07;;
27543;SDS011;17996;51.056;3.656;2023-06-22T03:02:24;9.90;;;8.05;;
27543;SDS011;17996;51.056;3.656;2023-06-22T03:04:51;14.63;;;8.65;;
27543;SDS011;17996;51.056;3.656;2023-06-22T03:07:20;14.88;;;8.60;;
27543;SDS011;17996;51.056;3.656;2023-06-22T03:09:45;16.70;;;9.48;;
27543;SDS011;17996;51.056;3.656;2023-06-22T03:12:11;17.25;;;10.63;;
27543;SDS011;17996;51.056;3.656;2023-06-22T03:14:37;13.68;;;9.70;;
27543;SDS011;17996;51.056;3.656;2023-06-22T03:17:04;12.27;;;8.80;;
27543;SDS011;17996;51.056;3.656;2023-06-22T03:19:30;12.15;;;8.57;;
27543;SDS011;17996;51.056;3.656;2023-06-22T03:22:00;11.88;;;9.65;;
27543;SDS011;17996;51.056;3.656;2023-06-22T03:24:25;12.77;;;9.52;;
27543;SDS011;17996;51.056;3.656;2023-06-22T03:26:54;13.13;;;9.18;;
27543;SDS011;17996;51.056;3.656;2023-06-22T03:29:20;12.50;;;8.55;;
27543;SDS011;17996;51.056;3.656;2023-06-22T03:31:46;11.05;;;8.95;;
27543;SDS011;17996;51.056;3.656;2023-06-22T03:34:11;13.10;;;8.70;;
27543;SDS011;17996;51.056;3.656;2023-06-22T03:36:37;16.25;;;9.70;;
27543;SDS011;17996;51.056;3.656;2023-06-22T03:39:03;19.35;;;10.52;;
27543;SDS011;17996;51.056;3.656;2023-06-22T03:41:28;15.20;;;9.23;;
27543;SDS011;17996;51.056;3.656;2023-06-22T03:43:54;12.38;;;8.60;;
27543;SDS011;17996;51.056;3.656;2023-06-22T03:46:20;13.85;;;10.45;;
27543;SDS011;17996;51.056;3.656;2023-06-22T03:48:45;15.50;;;11.05;;
27543;SDS011;17996;51.056;3.656;2023-06-22T03:51:11;15.45;;;10.38;;
27543;SDS011;17996;51.056;3.656;2023-06-22T03:53:36;14.77;;;10.70;;
27543;SDS011;17996;51.056;3.656;2023-06-22T03:56:02;13.52;;;10.85;;
27543;SDS011;17996;51.056;3.656;2023-06-22T03:58:28;16.30;;;9.90;;
27543;SDS011;17996;51.056;3.656;2023-06-22T04:00:57;19.70;;;10.90;;
27543;SDS011;17996;51.056;3.656;2023-06-22T04:03:25;17.45;;;10.85;;
27543;SDS011;17996;51.056;3.656;2023-06-22T04:05:50;13.00;;;10.95;;
27543;SDS011;17996;51.056;3.656;2023-06-22T04:08:16;12.88;;;10.10;;
27543;SDS011;17996;51.056;3.656;2023-06-22T04:10:43;15.48;;;10.52;;
27543;SDS011;17996;51.056;3.656;2023-06-22T04:13:09;14.07;;;11.55;;
27543;SDS011;17996;51.056;3.656;2023-06-22T04:15:34;15.45;;;11.23;;
27543;SDS011;17996;51.056;3.656;2023-06-22T04:18:00;15.45;;;11.02;;
27543;SDS011;17996;51.056;3.656;2023-06-22T04:20:26;16.88;;;11.52;;
27543;SDS011;17996;51.056;3.656;2023-06-22T04:22:54;14.82;;;10.32;;
27543;SDS011;17996;51.056;3.656;2023-06-22T04:25:20;15.57;;;11.13;;
27543;SDS011;17996;51.056;3.656;2023-06-22T04:27:47;13.85;;;10.30;;
27543;SDS011;17996;51.056;3.656;2023-06-22T04:30:13;22.75;;;12.18;;
27543;SDS011;17996;51.056;3.656;2023-06-22T04:32:41;13.32;;;9.65;;
27543;SDS011;17996;51.056;3.656;2023-06-22T04:35:10;13.20;;;10.52;;
27543;SDS011;17996;51.056;3.656;2023-06-22T04:37:36;16.80;;;12.10;;
27543;SDS011;17996;51.056;3.656;2023-06-22T04:40:02;21.05;;;12.70;;
27543;SDS011;17996;51.056;3.656;2023-06-22T04:42:30;18.30;;;12.43;;
27543;SDS011;17996;51.056;3.656;2023-06-22T04:44:57;19.15;;;13.38;;
27543;SDS011;17996;51.056;3.656;2023-06-22T04:47:22;17.05;;;12.23;;
27543;SDS011;17996;51.056;3.656;2023-06-22T04:49:48;17.15;;;12.25;;
27543;SDS011;17996;51.056;3.656;2023-06-22T04:52:14;19.10;;;13.32;;
27543;SDS011;17996;51.056;3.656;2023-06-22T04:54:42;16.83;;;12.60;;
27543;SDS011;17996;51.056;3.656;2023-06-22T04:57:15;18.73;;;13.48;;
27543;SDS011;17996;51.056;3.656;2023-06-22T04:59:41;17.63;;;14.35;;
27543;SDS011;17996;51.056;3.656;2023-06-22T05:02:07;18.15;;;13.90;;
27543;SDS011;17996;51.056;3.656;2023-06-22T05:04:34;19.17;;;14.80;;
27543;SDS011;17996;51.056;3.656;2023-06-22T05:07:03;18.73;;;13.10;;
27543;SDS011;17996;51.056;3.656;2023-06-22T05:09:29;18.33;;;14.23;;
27543;SDS011;17996;51.056;3.656;2023-06-22T05:11:55;21.60;;;15.48;;
27543;SDS011;17996;51.056;3.656;2023-06-22T05:14:25;21.45;;;15.27;;
27543;SDS011;17996;51.056;3.656;2023-06-22T05:16:51;24.92;;;15.68;;
27543;SDS011;17996;51.056;3.656;2023-06-22T05:19:23;21.90;;;16.17;;
27543;SDS011;17996;51.056;3.656;2023-06-22T05:21:50;21.13;;;15.13;;
27543;SDS011;17996;51.056;3.656;2023-06-22T05:24:15;23.65;;;16.52;;
27543;SDS011;17996;51.056;3.656;2023-06-22T05:26:41;21.90;;;16.80;;
27543;SDS011;17996;51.056;3.656;2023-06-22T05:29:07;26.00;;;17.63;;
27543;SDS011;17996;51.056;3.656;2023-06-22T05:31:33;22.88;;;17.80;;
27543;SDS011;17996;51.056;3.656;2023-06-22T05:33:58;22.45;;;16.60;;
27543;SDS011;17996;51.056;3.656;2023-06-22T05:36:25;27.15;;;16.80;;
27543;SDS011;17996;51.056;3.656;2023-06-22T05:38:51;26.63;;;18.48;;
27543;SDS011;17996;51.056;3.656;2023-06-22T05:41:18;25.38;;;18.75;;
27543;SDS011;17996;51.056;3.656;2023-06-22T05:43:43;28.40;;;17.77;;
27543;SDS011;17996;51.056;3.656;2023-06-22T05:46:09;27.63;;;18.60;;
27543;SDS011;17996;51.056;3.656;2023-06-22T05:48:35;24.30;;;17.80;;
27543;SDS011;17996;51.056;3.656;2023-06-22T05:51:00;22.50;;;16.50;;
27543;SDS011;17996;51.056;3.656;2023-06-22T05:53:26;25.33;;;17.08;;
27543;SDS011;17996;51.056;3.656;2023-06-22T05:55:52;25.10;;;18.40;;
27543;SDS011;17996;51.056;3.656;2023-06-22T05:58:18;37.33;;;17.15;;
27543;SDS011;17996;51.056;3.656;2023-06-22T06:00:44;28.90;;;18.60;;
27543;SDS011;17996;51.056;3.656;2023-06-22T06:03:11;25.95;;;17.75;;
27543;SDS011;17996;51.056;3.656;2023-06-22T06:05:37;31.13;;;18.65;;
27543;SDS011;17996;51.056;3.656;2023-06-22T06:08:03;28.52;;;17.98;;
27543;SDS011;17996;51.056;3.656;2023-06-22T06:10:31;21.77;;;15.70;;
27543;SDS011;17996;51.056;3.656;2023-06-22T06:12:57;22.55;;;16.35;;
27543;SDS011;17996;51.056;3.656;2023-06-22T06:15:23;31.25;;;18.30;;
27543;SDS011;17996;51.056;3.656;2023-06-22T06:17:50;27.85;;;17.67;;
27543;SDS011;17996;51.056;3.656;2023-06-22T06:20:18;23.10;;;15.88;;
27543;SDS011;17996;51.056;3.656;2023-06-22T06:22:45;22.70;;;16.77;;
27543;SDS011;17996;51.056;3.656;2023-06-22T06:25:11;25.42;;;16.30;;
27543;SDS011;17996;51.056;3.656;2023-06-22T06:30:10;32.33;;;18.25;;
27543;SDS011;17996;51.056;3.656;2023-06-22T06:32:37;32.17;;;18.48;;
27543;SDS011;17996;51.056;3.656;2023-06-22T06:35:06;27.90;;;18.27;;
27543;SDS011;17996;51.056;3.656;2023-06-22T06:37:35;26.30;;;19.02;;
27543;SDS011;17996;51.056;3.656;2023-06-22T06:40:02;31.80;;;18.00;;
27543;SDS011;17996;51.056;3.656;2023-06-22T06:42:30;28.00;;;19.02;;
27543;SDS011;17996;51.056;3.656;2023-06-22T06:44:56;28.25;;;18.88;;
27543;SDS011;17996;51.056;3.656;2023-06-22T06:47:22;29.67;;;17.25;;
27543;SDS011;17996;51.056;3.656;2023-06-22T06:49:48;24.63;;;17.45;;
27543;SDS011;17996;51.056;3.656;2023-06-22T06:52:13;29.35;;;19.02;;
27543;SDS011;17996;51.056;3.656;2023-06-22T06:54:39;36.08;;;18.95;;
27543;SDS011;17996;51.056;3.656;2023-06-22T06:57:06;28.77;;;18.88;;
27543;SDS011;17996;51.056;3.656;2023-06-22T06:59:35;28.38;;;17.63;;
27543;SDS011;17996;51.056;3.656;2023-06-22T07:02:01;30.15;;;19.13;;
27543;SDS011;17996;51.056;3.656;2023-06-22T07:04:26;26.95;;;19.67;;
27543;SDS011;17996;51.056;3.656;2023-06-22T07:06:52;31.60;;;19.70;;
27543;SDS011;17996;51.056;3.656;2023-06-22T07:09:18;36.70;;;21.08;;
27543;SDS011;17996;51.056;3.656;2023-06-22T07:11:43;32.42;;;20.23;;
27543;SDS011;17996;51.056;3.656;2023-06-22T07:14:09;28.77;;;17.63;;
27543;SDS011;17996;51.056;3.656;2023-06-22T07:16:35;30.30;;;18.10;;
27543;SDS011;17996;51.056;3.656;2023-06-22T07:19:00;37.33;;;20.10;;
27543;SDS011;17996;51.056;3.656;2023-06-22T07:21:26;30.10;;;18.85;;
27543;SDS011;17996;51.056;3.656;2023-06-22T07:23:52;30.20;;;18.63;;
27543;SDS011;17996;51.056;3.656;2023-06-22T07:26:18;36.47;;;19.73;;
27543;SDS011;17996;51.056;3.656;2023-06-22T07:28:44;32.10;;;20.27;;
27543;SDS011;17996;51.056;3.656;2023-06-22T07:31:10;30.58;;;21.15;;
27543;SDS011;17996;51.056;3.656;2023-06-22T07:33:36;26.23;;;18.55;;
27543;SDS011;17996;51.056;3.656;2023-06-22T07:36:02;33.13;;;20.85;;
27543;SDS011;17996;51.056;3.656;2023-06-22T07:38:32;33.20;;;20.63;;
27543;SDS011;17996;51.056;3.656;2023-06-22T07:40:58;32.25;;;21.77;;
27543;SDS011;17996;51.056;3.656;2023-06-22T07:43:24;39.28;;;22.30;;
27543;SDS011;17996;51.056;3.656;2023-06-22T07:45:50;35.83;;;21.85;;
27543;SDS011;17996;51.056;3.656;2023-06-22T07:48:22;32.10;;;22.40;;
27543;SDS011;17996;51.056;3.656;2023-06-22T07:53:13;29.90;;;22.55;;
27543;SDS011;17996;51.056;3.656;2023-06-22T07:55:39;38.97;;;22.15;;
27543;SDS011;17996;51.056;3.656;2023-06-22T07:58:05;37.80;;;22.48;;
27543;SDS011;17996;51.056;3.656;2023-06-22T08:00:30;37.10;;;23.13;;
27543;SDS011;17996;51.056;3.656;2023-06-22T08:02:58;34.15;;;22.77;;
27543;SDS011;17996;51.056;3.656;2023-06-22T08:05:24;32.42;;;22.33;;
27543;SDS011;17996;51.056;3.656;2023-06-22T08:07:49;32.30;;;20.73;;
27543;SDS011;17996;51.056;3.656;2023-06-22T08:10:15;33.38;;;21.95;;
27543;SDS011;17996;51.056;3.656;2023-06-22T08:12:41;29.80;;;22.40;;
27543;SDS011;17996;51.056;3.656;2023-06-22T08:15:07;25.77;;;21.83;;
27543;SDS011;17996;51.056;3.656;2023-06-22T08:17:34;38.58;;;23.88;;
27543;SDS011;17996;51.056;3.656;2023-06-22T08:20:02;31.80;;;22.60;;
27543;SDS011;17996;51.056;3.656;2023-06-22T08:22:34;32.42;;;22.60;;
27543;SDS011;17996;51.056;3.656;2023-06-22T08:25:01;27.52;;;21.67;;
27543;SDS011;17996;51.056;3.656;2023-06-22T08:27:28;28.27;;;21.40;;
27543;SDS011;17996;51.056;3.656;2023-06-22T08:29:56;28.53;;;19.30;;
27543;SDS011;17996;51.056;3.656;2023-06-22T08:32:24;24.85;;;18.13;;
27543;SDS011;17996;51.056;3.656;2023-06-22T08:34:52;24.83;;;18.70;;
27543;SDS011;17996;51.056;3.656;2023-06-22T08:37:18;25.67;;;18.88;;
27543;SDS011;17996;51.056;3.656;2023-06-22T08:39:44;28.65;;;20.83;;
27543;SDS011;17996;51.056;3.656;2023-06-22T08:42:11;27.90;;;19.65;;
27543;SDS011;17996;51.056;3.656;2023-06-22T08:44:37;28.52;;;19.13;;
27543;SDS011;17996;51.056;3.656;2023-06-22T08:47:02;28.08;;;20.40;;
27543;SDS011;17996;51.056;3.656;2023-06-22T08:49:28;31.17;;;22.52;;
27543;SDS011;17996;51.056;3.656;2023-06-22T08:51:54;30.08;;;20.23;;
27543;SDS011;17996;51.056;3.656;2023-06-22T08:54:21;29.13;;;21.10;;
27543;SDS011;17996;51.056;3.656;2023-06-22T08:56:48;26.92;;;21.42;;
27543;SDS011;17996;51.056;3.656;2023-06-22T08:59:13;23.42;;;20.38;;
27543;SDS011;17996;51.056;3.656;2023-06-22T09:01:39;24.67;;;20.52;;
27543;SDS011;17996;51.056;3.656;2023-06-22T09:04:05;25.15;;;20.02;;
27543;SDS011;17996;51.056;3.656;2023-06-22T09:06:32;26.65;;;19.20;;
27543;SDS011;17996;51.056;3.656;2023-06-22T09:08:58;26.88;;;19.40;;
27543;SDS011;17996;51.056;3.656;2023-06-22T09:11:26;25.67;;;20.92;;
27543;SDS011;17996;51.056;3.656;2023-06-22T09:13:52;25.98;;;19.88;;
27543;SDS011;17996;51.056;3.656;2023-06-22T09:16:18;26.67;;;21.13;;
27543;SDS011;17996;51.056;3.656;2023-06-22T09:18:47;32.40;;;20.98;;
27543;SDS011;17996;51.056;3.656;2023-06-22T09:23:39;23.83;;;20.73;;
27543;SDS011;17996;51.056;3.656;2023-06-22T09:26:05;27.38;;;20.23;;
27543;SDS011;17996;51.056;3.656;2023-06-22T09:28:30;26.67;;;20.90;;
27543;SDS011;17996;51.056;3.656;2023-06-22T09:30:56;27.65;;;20.40;;
27543;SDS011;17996;51.056;3.656;2023-06-22T09:33:24;23.80;;;19.85;;
27543;SDS011;17996;51.056;3.656;2023-06-22T09:35:50;26.77;;;19.65;;
27543;SDS011;17996;51.056;3.656;2023-06-22T09:38:17;25.13;;;19.08;;
27543;SDS011;17996;51.056;3.656;2023-06-22T09:40:43;22.85;;;16.92;;
27543;SDS011;17996;51.056;3.656;2023-06-22T09:43:08;22.65;;;17.02;;
27543;SDS011;17996;51.056;3.656;2023-06-22T09:45:35;18.88;;;14.85;;
27543;SDS011;17996;51.056;3.656;2023-06-22T09:48:00;23.52;;;16.75;;
27543;SDS011;17996;51.056;3.656;2023-06-22T09:50:26;26.90;;;16.35;;
27543;SDS011;17996;51.056;3.656;2023-06-22T09:52:51;17.30;;;15.45;;
27543;SDS011;17996;51.056;3.656;2023-06-22T09:55:20;22.90;;;16.17;;
27543;SDS011;17996;51.056;3.656;2023-06-22T09:57:46;19.77;;;17.60;;
27543;SDS011;17996;51.056;3.656;2023-06-22T10:00:12;32.47;;;20.25;;
27543;SDS011;17996;51.056;3.656;2023-06-22T10:02:39;28.30;;;19.13;;
27543;SDS011;17996;51.056;3.656;2023-06-22T10:05:06;35.33;;;21.42;;
27543;SDS011;17996;51.056;3.656;2023-06-22T10:07:32;26.63;;;21.10;;
27543;SDS011;17996;51.056;3.656;2023-06-22T10:09:58;30.88;;;20.05;;
27543;SDS011;17996;51.056;3.656;2023-06-22T10:12:25;34.35;;;21.90;;
27543;SDS011;17996;51.056;3.656;2023-06-22T10:14:52;34.22;;;21.52;;
27543;SDS011;17996;51.056;3.656;2023-06-22T10:17:18;38.92;;;21.20;;
27543;SDS011;17996;51.056;3.656;2023-06-22T10:19:43;27.80;;;21.30;;
27543;SDS011;17996;51.056;3.656;2023-06-22T10:22:09;29.30;;;22.35;;
27543;SDS011;17996;51.056;3.656;2023-06-22T10:24:35;27.35;;;20.95;;
27543;SDS011;17996;51.056;3.656;2023-06-22T10:27:00;30.15;;;21.73;;
27543;SDS011;17996;51.056;3.656;2023-06-22T10:29:26;32.95;;;22.70;;
27543;SDS011;17996;51.056;3.656;2023-06-22T10:31:52;26.88;;;21.73;;
27543;SDS011;17996;51.056;3.656;2023-06-22T10:34:17;29.50;;;21.40;;
27543;SDS011;17996;51.056;3.656;2023-06-22T10:36:43;30.92;;;21.23;;
27543;SDS011;17996;51.056;3.656;2023-06-22T10:39:11;25.45;;;20.60;;
27543;SDS011;17996;51.056;3.656;2023-06-22T10:41:37;28.23;;;22.23;;
27543;SDS011;17996;51.056;3.656;2023-06-22T10:44:02;28.05;;;21.58;;
27543;SDS011;17996;51.056;3.656;2023-06-22T10:46:28;29.75;;;21.27;;
27543;SDS011;17996;51.056;3.656;2023-06-22T10:48:54;28.63;;;20.13;;
27543;SDS011;17996;51.056;3.656;2023-06-22T10:51:22;24.00;;;19.10;;
27543;SDS011;17996;51.056;3.656;2023-06-22T10:53:47;28.48;;;19.17;;
27543;SDS011;17996;51.056;3.656;2023-06-22T10:56:13;28.73;;;19.88;;
27543;SDS011;17996;51.056;3.656;2023-06-22T10:58:39;29.58;;;19.50;;
27543;SDS011;17996;51.056;3.656;2023-06-22T11:01:04;26.95;;;19.77;;
27543;SDS011;17996;51.056;3.656;2023-06-22T11:03:30;24.20;;;18.23;;
27543;SDS011;17996;51.056;3.656;2023-06-22T11:05:55;25.55;;;18.23;;
27543;SDS011;17996;51.056;3.656;2023-06-22T11:08:23;27.52;;;19.02;;
27543;SDS011;17996;51.056;3.656;2023-06-22T11:10:50;24.13;;;18.75;;
27543;SDS011;17996;51.056;3.656;2023-06-22T11:13:16;25.73;;;19.00;;
27543;SDS011;17996;51.056;3.656;2023-06-22T11:15:43;26.48;;;19.45;;
27543;SDS011;17996;51.056;3.656;2023-06-22T11:18:09;23.10;;;18.48;;
27543;SDS011;17996;51.056;3.656;2023-06-22T11:20:34;23.85;;;17.83;;
27543;SDS011;17996;51.056;3.656;2023-06-22T11:25:32;30.08;;;18.98;;
27543;SDS011;17996;51.056;3.656;2023-06-22T11:28:01;30.40;;;17.95;;
27543;SDS011;17996;51.056;3.656;2023-06-22T11:30:28;22.30;;;17.65;;
27543;SDS011;17996;51.056;3.656;2023-06-22T11:32:56;20.15;;;14.60;;
27543;SDS011;17996;51.056;3.656;2023-06-22T11:35:23;24.73;;;13.93;;
27543;SDS011;17996;51.056;3.656;2023-06-22T11:37:48;21.80;;;15.43;;
27543;SDS011;17996;51.056;3.656;2023-06-22T11:40:14;18.42;;;14.35;;
27543;SDS011;17996;51.056;3.656;2023-06-22T11:42:39;19.15;;;13.75;;
27543;SDS011;17996;51.056;3.656;2023-06-22T11:45:06;21.00;;;13.30;;
27543;SDS011;17996;51.056;3.656;2023-06-22T11:47:32;18.65;;;12.77;;
27543;SDS011;17996;51.056;3.656;2023-06-22T11:49:57;19.20;;;13.23;;
27543;SDS011;17996;51.056;3.656;2023-06-22T11:52:23;16.73;;;11.82;;
27543;SDS011;17996;51.056;3.656;2023-06-22T11:54:49;14.77;;;11.32;;
27543;SDS011;17996;51.056;3.656;2023-06-22T11:57:14;13.93;;;10.05;;
27543;SDS011;17996;51.056;3.656;2023-06-22T11:59:40;16.92;;;11.13;;
27543;SDS011;17996;51.056;3.656;2023-06-22T12:02:06;14.02;;;10.35;;
27543;SDS011;17996;51.056;3.656;2023-06-22T12:04:32;19.13;;;12.38;;
27543;SDS011;17996;51.056;3.656;2023-06-22T12:06:58;15.40;;;12.68;;
27543;SDS011;17996;51.056;3.656;2023-06-22T12:09:23;17.83;;;13.50;;
27543;SDS011;17996;51.056;3.656;2023-06-22T12:11:49;21.90;;;14.27;;
27543;SDS011;17996;51.056;3.656;2023-06-22T12:14:15;21.05;;;14.10;;
27543;SDS011;17996;51.056;3.656;2023-06-22T12:16:41;22.25;;;16.13;;
27543;SDS011;17996;51.056;3.656;2023-06-22T12:19:08;30.00;;;16.83;;
27543;SDS011;17996;51.056;3.656;2023-06-22T12:21:34;30.52;;;21.50;;
27543;SDS011;17996;51.056;3.656;2023-06-22T12:24:00;27.83;;;21.60;;
27543;SDS011;17996;51.056;3.656;2023-06-22T12:26:26;26.60;;;21.02;;
27543;SDS011;17996;51.056;3.656;2023-06-22T12:28:51;24.50;;;18.02;;
27543;SDS011;17996;51.056;3.656;2023-06-22T12:31:17;26.95;;;19.75;;
27543;SDS011;17996;51.056;3.656;2023-06-22T12:33:43;26.38;;;18.80;;
27543;SDS011;17996;51.056;3.656;2023-06-22T12:36:08;24.88;;;17.73;;
27543;SDS011;17996;51.056;3.656;2023-06-22T12:38:34;27.50;;;18.23;;
27543;SDS011;17996;51.056;3.656;2023-06-22T12:41:00;26.48;;;18.65;;
27543;SDS011;17996;51.056;3.656;2023-06-22T12:43:26;27.70;;;18.58;;
27543;SDS011;17996;51.056;3.656;2023-06-22T12:45:51;25.33;;;17.55;;
27543;SDS011;17996;51.056;3.656;2023-06-22T12:48:18;32.20;;;19.00;;
27543;SDS011;17996;51.056;3.656;2023-06-22T12:50:44;28.52;;;20.33;;
27543;SDS011;17996;51.056;3.656;2023-06-22T12:53:10;31.13;;;18.90;;
27543;SDS011;17996;51.056;3.656;2023-06-22T12:55:36;31.80;;;18.17;;
27543;SDS011;17996;51.056;3.656;2023-06-22T12:58:01;24.92;;;17.52;;
27543;SDS011;17996;51.056;3.656;2023-06-22T13:00:27;24.80;;;18.20;;
27543;SDS011;17996;51.056;3.656;2023-06-22T13:02:53;25.35;;;18.15;;
27543;SDS011;17996;51.056;3.656;2023-06-22T13:05:18;23.35;;;16.63;;
27543;SDS011;17996;51.056;3.656;2023-06-22T13:07:46;23.85;;;16.48;;
27543;SDS011;17996;51.056;3.656;2023-06-22T13:10:12;26.50;;;17.50;;
27543;SDS011;17996;51.056;3.656;2023-06-22T13:12:37;27.20;;;17.35;;
27543;SDS011;17996;51.056;3.656;2023-06-22T13:15:03;24.63;;;17.10;;
27543;SDS011;17996;51.056;3.656;2023-06-22T13:17:30;25.23;;;17.08;;
27543;SDS011;17996;51.056;3.656;2023-06-22T13:19:55;23.98;;;17.60;;
27543;SDS011;17996;51.056;3.656;2023-06-22T13:22:34;22.00;;;15.55;;
27543;SDS011;17996;51.056;3.656;2023-06-22T13:25:08;21.60;;;15.73;;
27543;SDS011;17996;51.056;3.656;2023-06-22T13:30:03;22.10;;;17.33;;
27543;SDS011;17996;51.056;3.656;2023-06-22T13:32:29;22.05;;;16.15;;
27543;SDS011;17996;51.056;3.656;2023-06-22T13:34:55;25.85;;;15.50;;
27543;SDS011;17996;51.056;3.656;2023-06-22T13:37:21;21.83;;;16.67;;
27543;SDS011;17996;51.056;3.656;2023-06-22T13:39:46;20.40;;;16.00;;
27543;SDS011;17996;51.056;3.656;2023-06-22T13:42:12;23.90;;;15.77;;
27543;SDS011;17996;51.056;3.656;2023-06-22T13:44:37;18.17;;;15.10;;
27543;SDS011;17996;51.056;3.656;2023-06-22T13:47:03;24.10;;;15.80;;
27543;SDS011;17996;51.056;3.656;2023-06-22T13:49:30;22.08;;;15.52;;
27543;SDS011;17996;51.056;3.656;2023-06-22T13:51:55;19.92;;;15.68;;
27543;SDS011;17996;51.056;3.656;2023-06-22T13:54:21;20.77;;;15.30;;
27543;SDS011;17996;51.056;3.656;2023-06-22T13:56:49;22.35;;;16.10;;
27543;SDS011;17996;51.056;3.656;2023-06-22T13:59:14;22.10;;;15.65;;
27543;SDS011;17996;51.056;3.656;2023-06-22T14:01:40;19.02;;;15.88;;
27543;SDS011;17996;51.056;3.656;2023-06-22T14:04:07;20.88;;;15.50;;
27543;SDS011;17996;51.056;3.656;2023-06-22T14:06:33;20.27;;;15.63;;
27543;SDS011;17996;51.056;3.656;2023-06-22T14:08:59;18.90;;;15.68;;
27543;SDS011;17996;51.056;3.656;2023-06-22T14:11:25;18.17;;;15.88;;
27543;SDS011;17996;51.056;3.656;2023-06-22T14:13:51;29.70;;;23.67;;
27543;SDS011;17996;51.056;3.656;2023-06-22T14:16:17;34.95;;;27.35;;
27543;SDS011;17996;51.056;3.656;2023-06-22T14:18:42;37.92;;;29.67;;
27543;SDS011;17996;51.056;3.656;2023-06-22T14:21:09;38.75;;;28.83;;
27543;SDS011;17996;51.056;3.656;2023-06-22T14:23:35;40.22;;;28.08;;
27543;SDS011;17996;51.056;3.656;2023-06-22T14:26:02;34.30;;;29.02;;
27543;SDS011;17996;51.056;3.656;2023-06-22T14:28:28;38.63;;;28.58;;
27543;SDS011;17996;51.056;3.656;2023-06-22T14:30:53;39.58;;;30.35;;
27543;SDS011;17996;51.056;3.656;2023-06-22T14:33:19;40.53;;;29.20;;
27543;SDS011;17996;51.056;3.656;2023-06-22T14:35:44;37.47;;;27.20;;
27543;SDS011;17996;51.056;3.656;2023-06-22T14:38:10;39.97;;;27.75;;
27543;SDS011;17996;51.056;3.656;2023-06-22T14:40:36;35.95;;;29.23;;
27543;SDS011;17996;51.056;3.656;2023-06-22T14:43:01;40.28;;;26.83;;
27543;SDS011;17996;51.056;3.656;2023-06-22T14:45:27;39.58;;;28.42;;